Time;durP1;ratioP1;P1;durP2;ratioP2;P2;SDS_P1;SDS_P2;PMS_P1;PMS_P2;Temp;Humidity;BMP_temperature;BMP_pressure;BME280_temperature;BME280_humidity;BME280_pressure;Samples;Min_cycle;Max_cycle;Signal;HPM_P1;HPM_P2
2020/12/19 00:00:08;;;;;;;152.07;46.92;;;7.60;99.90;;;;;;5076013;28;20399;-61
2020/12/19 00:02:34;;;;;;;151.60;46.30;;;7.70;99.90;;;;;;5076896;28;20862;-62
2020/12/19 00:05:01;;;;;;;151.85;47.10;;;7.60;99.90;;;;;;5068193;28;20402;-61
2020/12/19 00:07:28;;;;;;;158.37;47.37;;;7.70;99.90;;;;;;5069560;28;20398;-61
2020/12/19 00:09:54;;;;;;;153.77;47.25;;;7.60;99.90;;;;;;5069892;28;20901;-61
2020/12/19 00:12:21;;;;;;;152.70;46.10;;;7.60;99.90;;;;;;5070832;28;20874;-61
2020/12/19 00:14:48;;;;;;;160.27;47.83;;;7.60;99.90;;;;;;5073763;28;20385;-61
2020/12/19 00:17:14;;;;;;;158.20;49.20;;;7.70;99.90;;;;;;5072831;28;20775;-62
2020/12/19 00:19:40;;;;;;;157.98;48.60;;;7.70;99.90;;;;;;5073717;28;20405;-61
2020/12/19 00:22:07;;;;;;;152.95;48.60;;;7.70;99.90;;;;;;5066041;28;20388;-61
2020/12/19 00:24:33;;;;;;;152.98;48.15;;;7.70;99.90;;;;;;5073833;28;20404;-61
2020/12/19 00:26:59;;;;;;;169.07;48.42;;;7.60;99.90;;;;;;5073827;28;20449;-61
2020/12/19 00:29:25;;;;;;;160.75;49.42;;;7.60;99.90;;;;;;5073631;28;20377;-61
2020/12/19 00:31:51;;;;;;;166.38;49.00;;;7.60;99.90;;;;;;5074061;28;20409;-62
2020/12/19 00:34:18;;;;;;;173.63;50.23;;;7.60;99.90;;;;;;5072265;28;20397;-62
2020/12/19 00:36:44;;;;;;;166.98;47.40;;;7.70;99.90;;;;;;5073318;28;20410;-62
2020/12/19 00:39:10;;;;;;;152.07;46.70;;;7.70;99.90;;;;;;5073609;28;20386;-62
2020/12/19 00:41:36;;;;;;;143.82;46.90;;;7.70;99.90;;;;;;5072927;28;20416;-62
2020/12/19 00:44:02;;;;;;;149.80;46.55;;;7.70;99.90;;;;;;5071838;28;20894;-62
2020/12/19 00:46:29;;;;;;;150.43;47.50;;;7.70;99.90;;;;;;5073261;28;20382;-62
2020/12/19 00:48:55;;;;;;;141.50;45.38;;;7.60;99.90;;;;;;5073224;28;20733;-62
2020/12/19 00:51:22;;;;;;;137.07;44.67;;;7.70;99.90;;;;;;5071137;28;20937;-62
2020/12/19 00:53:49;;;;;;;134.55;44.35;;;7.70;99.90;;;;;;5073309;28;20908;-62
2020/12/19 00:56:22;;;;;;;131.75;42.88;;;7.70;99.90;;;;;;5072385;28;20417;-62
2020/12/19 00:58:50;;;;;;;127.73;42.73;;;7.70;99.90;;;;;;5072756;28;20385;-63
2020/12/19 01:01:18;;;;;;;132.32;43.80;;;7.70;99.90;;;;;;5072359;28;20402;-62
2020/12/19 01:03:44;;;;;;;128.73;41.35;;;7.70;99.90;;;;;;5072319;28;20886;-62
2020/12/19 01:06:17;;;;;;;113.72;39.42;;;7.70;99.90;;;;;;5071019;28;20657;-62
2020/12/19 01:08:48;;;;;;;112.35;40.22;;;7.70;99.90;;;;;;5073086;28;20398;-62
2020/12/19 01:11:14;;;;;;;117.63;40.90;;;7.70;99.90;;;;;;5072756;28;20385;-62
2020/12/19 01:13:41;;;;;;;109.28;40.30;;;7.70;99.90;;;;;;5071640;28;20413;-62
2020/12/19 01:16:08;;;;;;;109.35;40.88;;;7.70;99.90;;;;;;5072852;28;20389;-63
2020/12/19 01:18:35;;;;;;;112.05;40.03;;;7.70;99.90;;;;;;5071267;28;20394;-62
2020/12/19 01:21:01;;;;;;;111.28;40.20;;;7.70;99.90;;;;;;5072282;28;20383;-62
2020/12/19 01:23:27;;;;;;;114.40;40.25;;;7.70;99.90;;;;;;5071310;28;20413;-63
2020/12/19 01:25:54;;;;;;;112.82;39.20;;;7.70;99.90;;;;;;5072382;28;20382;-63
2020/12/19 01:28:20;;;;;;;113.43;39.50;;;7.60;99.90;;;;;;5072138;28;20394;-62
2020/12/19 01:30:46;;;;;;;115.45;39.70;;;7.60;99.90;;;;;;5069454;28;20394;-62
2020/12/19 01:33:12;;;;;;;101.00;36.60;;;7.70;99.90;;;;;;5070214;28;20413;-63
2020/12/19 01:35:38;;;;;;;110.13;38.92;;;7.70;99.90;;;;;;5071934;28;20382;-63
2020/12/19 01:38:05;;;;;;;104.45;37.03;;;7.60;99.90;;;;;;5072907;28;20774;-63
2020/12/19 01:40:31;;;;;;;107.20;37.87;;;7.60;99.90;;;;;;5072195;28;20696;-63
2020/12/19 01:42:57;;;;;;;109.47;37.38;;;7.70;99.90;;;;;;5062526;28;20477;-63
2020/12/19 01:45:26;;;;;;;102.38;37.28;;;7.70;99.90;;;;;;5063327;28;20382;-63
2020/12/19 01:47:52;;;;;;;94.63;37.35;;;7.60;99.90;;;;;;5071539;28;20415;-62
2020/12/19 01:50:18;;;;;;;97.95;35.35;;;7.60;99.90;;;;;;5070391;28;20849;-63
2020/12/19 01:52:47;;;;;;;89.15;34.90;;;7.60;99.90;;;;;;5066818;28;20382;-63
2020/12/19 01:55:13;;;;;;;89.80;34.70;;;7.60;99.90;;;;;;5054107;28;20377;-63
2020/12/19 01:57:40;;;;;;;86.40;33.22;;;7.60;99.90;;;;;;5070947;28;20810;-63
2020/12/19 02:00:06;;;;;;;86.38;32.13;;;7.60;99.90;;;;;;5070786;28;20405;-63
2020/12/19 02:02:32;;;;;;;78.47;30.02;;;7.60;99.90;;;;;;5072101;28;20884;-63
2020/12/19 02:05:04;;;;;;;79.00;31.57;;;7.70;99.90;;;;;;5066430;28;20713;-63
2020/12/19 02:07:30;;;;;;;81.97;32.10;;;7.60;99.90;;;;;;5069124;28;20390;-62
2020/12/19 02:09:56;;;;;;;73.53;30.60;;;7.60;99.90;;;;;;5068935;28;20393;-62
2020/12/19 02:12:23;;;;;;;82.53;29.45;;;7.60;99.90;;;;;;5069927;28;20410;-63
2020/12/19 02:14:49;;;;;;;88.85;31.20;;;7.60;99.90;;;;;;5071151;28;20405;-63
2020/12/19 02:17:15;;;;;;;82.68;30.23;;;7.60;99.90;;;;;;5070774;28;20406;-63
2020/12/19 02:19:41;;;;;;;79.90;30.02;;;7.60;99.90;;;;;;5071222;28;20745;-62
2020/12/19 02:22:08;;;;;;;85.00;30.38;;;7.60;99.90;;;;;;5063975;28;20718;-63
2020/12/19 02:24:34;;;;;;;84.90;29.45;;;7.60;99.90;;;;;;5071478;28;20676;-62
2020/12/19 02:27:01;;;;;;;78.60;29.80;;;7.60;99.90;;;;;;5071522;28;20743;-62
2020/12/19 02:29:28;;;;;;;77.10;28.23;;;7.60;99.90;;;;;;5070869;28;20397;-63
2020/12/19 02:31:56;;;;;;;75.75;28.98;;;7.60;99.90;;;;;;5070713;28;20397;-63
2020/12/19 02:34:22;;;;;;;72.32;27.45;;;7.60;99.90;;;;;;5069776;28;20489;-63
2020/12/19 02:36:48;;;;;;;82.63;29.08;;;7.60;99.90;;;;;;5070994;28;20897;-63
2020/12/19 02:39:14;;;;;;;85.38;28.35;;;7.60;99.90;;;;;;5071400;28;20396;-63
2020/12/19 02:41:42;;;;;;;69.72;26.85;;;7.60;99.90;;;;;;5070701;28;20418;-63
2020/12/19 02:44:10;;;;;;;80.13;27.30;;;7.60;99.90;;;;;;5069801;28;20393;-63
2020/12/19 02:46:36;;;;;;;69.97;25.65;;;7.60;99.90;;;;;;5069063;28;20398;-63
2020/12/19 02:49:04;;;;;;;72.45;25.80;;;7.60;99.90;;;;;;5070538;28;20417;-63
2020/12/19 02:51:30;;;;;;;65.67;25.27;;;7.60;99.90;;;;;;5067265;28;20380;-63
2020/12/19 02:53:56;;;;;;;66.75;25.77;;;7.60;99.90;;;;;;5050414;28;20400;-63
2020/12/19 02:56:22;;;;;;;64.10;24.63;;;7.60;99.90;;;;;;5055750;28;20402;-62
2020/12/19 02:58:48;;;;;;;68.00;25.60;;;7.60;99.90;;;;;;5070690;28;20409;-63
2020/12/19 03:01:14;;;;;;;60.72;24.35;;;7.50;99.90;;;;;;5070670;28;20712;-62
2020/12/19 03:03:44;;;;;;;64.10;23.70;;;7.50;99.90;;;;;;5067175;28;20407;-63
2020/12/19 03:06:11;;;;;;;59.30;23.75;;;7.60;99.90;;;;;;5070806;28;20387;-63
2020/12/19 03:08:37;;;;;;;63.45;23.50;;;7.50;99.90;;;;;;5066742;28;20397;-63
2020/12/19 03:11:03;;;;;;;63.00;23.95;;;7.50;99.90;;;;;;5080077;28;20487;-63
2020/12/19 03:13:29;;;;;;;57.47;23.13;;;7.50;99.90;;;;;;5070560;28;20386;-63
2020/12/19 03:15:56;;;;;;;63.33;22.85;;;7.50;99.90;;;;;;5070092;28;20398;-63
2020/12/19 03:18:22;;;;;;;60.05;23.17;;;7.50;99.90;;;;;;5070255;28;20413;-63
2020/12/19 03:20:48;;;;;;;55.05;22.25;;;7.50;99.90;;;;;;5070211;28;20854;-63
2020/12/19 03:23:14;;;;;;;59.43;22.43;;;7.50;99.90;;;;;;5070593;28;20693;-63
2020/12/19 03:25:40;;;;;;;61.33;22.80;;;7.50;99.90;;;;;;5089935;28;20864;-63
2020/12/19 03:28:06;;;;;;;71.70;23.40;;;7.50;99.90;;;;;;5071673;28;20452;-63
2020/12/19 03:30:33;;;;;;;55.42;21.70;;;7.50;99.90;;;;;;5070240;28;20386;-63
2020/12/19 03:32:59;;;;;;;56.75;22.45;;;7.50;99.90;;;;;;5071335;28;20405;-63
2020/12/19 03:35:25;;;;;;;55.55;20.83;;;7.50;99.90;;;;;;5069656;28;20723;-63
2020/12/19 03:37:51;;;;;;;53.10;20.85;;;7.50;99.90;;;;;;5065465;28;20422;-63
2020/12/19 03:40:18;;;;;;;52.42;20.60;;;7.40;99.90;;;;;;5050683;28;20793;-63
2020/12/19 03:42:45;;;;;;;51.17;20.05;;;7.50;99.90;;;;;;5058160;28;20782;-62
2020/12/19 03:45:11;;;;;;;56.40;20.80;;;7.40;99.90;;;;;;5070447;28;20920;-63
2020/12/19 03:47:37;;;;;;;53.50;21.35;;;7.40;99.90;;;;;;5073946;28;20420;-63
2020/12/19 03:50:04;;;;;;;58.80;20.38;;;7.40;99.90;;;;;;5076682;28;20382;-62
2020/12/19 03:52:30;;;;;;;57.67;20.23;;;7.40;99.90;;;;;;5066356;28;20387;-63
2020/12/19 03:54:56;;;;;;;48.97;19.48;;;7.40;99.90;;;;;;5057326;28;20383;-63
2020/12/19 03:57:22;;;;;;;50.33;20.00;;;7.40;99.90;;;;;;5061676;28;20478;-63
2020/12/19 03:59:48;;;;;;;45.42;20.02;;;7.40;99.90;;;;;;5074457;28;20398;-63
2020/12/19 04:02:14;;;;;;;49.78;20.05;;;7.30;99.90;;;;;;5075853;28;20397;-63
2020/12/19 04:04:44;;;;;;;50.58;20.83;;;7.30;99.90;;;;;;5074611;28;20394;-62
2020/12/19 04:07:10;;;;;;;49.85;20.05;;;7.40;99.90;;;;;;5075982;28;20401;-63
2020/12/19 04:09:36;;;;;;;52.95;19.83;;;7.30;99.90;;;;;;5076055;28;20386;-62
2020/12/19 04:12:03;;;;;;;51.60;19.02;;;7.30;99.90;;;;;;5076284;28;20386;-62
2020/12/19 04:14:39;;;;;;;48.08;20.73;;;7.30;99.90;;;;;;5076184;28;20896;-63
2020/12/19 04:17:07;;;;;;;50.53;20.13;;;7.30;99.90;;;;;;5074999;28;20413;-63
2020/12/19 04:19:33;;;;;;;48.22;19.55;;;7.30;99.90;;;;;;5074802;28;20911;-63
2020/12/19 04:22:00;;;;;;;48.15;19.50;;;7.30;99.90;;;;;;5073699;28;20519;-63
2020/12/19 04:24:26;;;;;;;52.55;19.95;;;7.30;99.90;;;;;;5072492;28;20389;-63
2020/12/19 04:26:52;;;;;;;48.47;19.50;;;7.30;99.90;;;;;;5065567;28;20395;-63
2020/12/19 04:29:21;;;;;;;50.40;20.10;;;7.20;99.90;;;;;;5066218;28;20900;-63
2020/12/19 04:31:47;;;;;;;46.38;18.08;;;7.30;99.90;;;;;;5072389;28;20401;-63
2020/12/19 04:34:14;;;;;;;44.08;18.83;;;7.20;99.90;;;;;;5075113;28;20397;-63
2020/12/19 04:36:40;;;;;;;48.08;19.17;;;7.20;99.90;;;;;;5075987;28;20516;-63
2020/12/19 04:39:06;;;;;;;44.83;18.73;;;7.20;99.90;;;;;;5076219;28;20457;-63
2020/12/19 04:41:35;;;;;;;42.40;17.93;;;7.20;99.90;;;;;;5075783;28;20405;-62
2020/12/19 04:44:02;;;;;;;40.60;18.30;;;7.20;99.90;;;;;;5069082;28;20394;-63
2020/12/19 04:46:29;;;;;;;43.45;16.10;;;7.20;99.90;;;;;;5076731;28;20888;-63
2020/12/19 04:48:56;;;;;;;39.65;16.73;;;7.20;99.90;;;;;;5075245;28;20886;-63
2020/12/19 04:51:23;;;;;;;42.63;16.45;;;7.20;99.90;;;;;;5074524;28;20374;-63
2020/12/19 04:53:49;;;;;;;40.28;16.35;;;7.20;99.90;;;;;;5071498;28;20401;-64
2020/12/19 04:56:15;;;;;;;40.15;16.30;;;7.20;99.90;;;;;;5073023;28;20399;-63
2020/12/19 04:58:41;;;;;;;37.40;16.77;;;7.20;99.90;;;;;;5053951;28;20402;-63
2020/12/19 05:01:07;;;;;;;37.33;15.85;;;7.10;99.90;;;;;;5072976;28;20379;-63
2020/12/19 05:03:33;;;;;;;40.30;15.63;;;7.20;99.90;;;;;;5071655;28;20870;-63
2020/12/19 05:06:00;;;;;;;37.90;15.18;;;7.20;99.90;;;;;;5072189;28;20445;-63
2020/12/19 05:08:26;;;;;;;35.92;14.93;;;7.20;99.90;;;;;;5070750;28;20850;-64
2020/12/19 05:10:52;;;;;;;42.77;15.47;;;7.20;99.90;;;;;;5073131;28;20732;-63
2020/12/19 05:13:21;;;;;;;35.95;14.25;;;7.20;99.90;;;;;;5073209;28;20854;-63
2020/12/19 05:15:47;;;;;;;36.35;14.23;;;7.10;99.90;;;;;;5072432;28;20408;-63
2020/12/19 05:18:14;;;;;;;35.90;13.85;;;7.10;99.90;;;;;;5070655;28;20414;-62
2020/12/19 05:20:40;;;;;;;37.47;14.10;;;7.10;99.90;;;;;;5053986;28;20878;-63
2020/12/19 05:23:09;;;;;;;35.13;13.38;;;7.10;99.90;;;;;;5070770;28;20438;-62
2020/12/19 05:25:36;;;;;;;40.58;13.90;;;7.20;99.90;;;;;;5071908;28;20409;-62
2020/12/19 05:28:03;;;;;;;38.33;13.35;;;7.10;99.90;;;;;;5067047;28;20378;-63
2020/12/19 05:30:29;;;;;;;33.08;13.63;;;7.10;99.90;;;;;;5066444;28;20386;-62
2020/12/19 05:32:55;;;;;;;35.72;12.32;;;7.10;99.90;;;;;;5070820;28;20397;-62
2020/12/19 05:35:22;;;;;;;34.78;13.25;;;7.10;99.90;;;;;;5071418;28;20394;-62
2020/12/19 05:38:02;;;;;;;35.53;12.68;;;7.10;99.90;;;;;;5071705;28;20406;-63
2020/12/19 05:40:29;;;;;;;30.25;13.07;;;7.10;99.90;;;;;;5070991;28;20385;-63
2020/12/19 05:42:58;;;;;;;29.98;12.05;;;7.10;99.90;;;;;;5072510;28;20406;-63
2020/12/19 05:45:25;;;;;;;31.92;12.05;;;7.20;99.90;;;;;;5063671;28;20716;-63
2020/12/19 05:47:51;;;;;;;34.50;12.88;;;7.10;99.90;;;;;;5071568;28;20395;-63
2020/12/19 05:50:18;;;;;;;27.13;12.18;;;7.10;99.90;;;;;;5072531;28;20373;-62
2020/12/19 05:52:44;;;;;;;31.23;10.90;;;7.10;99.90;;;;;;5059616;28;20384;-62
2020/12/19 05:55:18;;;;;;;29.10;12.20;;;7.10;99.90;;;;;;5052786;28;20827;-62
2020/12/19 05:57:44;;;;;;;26.42;11.38;;;7.20;99.90;;;;;;5070911;28;20425;-62
2020/12/19 06:00:12;;;;;;;29.55;11.85;;;7.20;99.90;;;;;;5067685;28;20401;-62
2020/12/19 06:02:39;;;;;;;30.50;11.30;;;7.10;99.90;;;;;;5067381;28;20401;-62
2020/12/19 06:05:09;;;;;;;26.70;11.27;;;7.10;99.90;;;;;;5071121;28;21078;-62
2020/12/19 06:07:40;;;;;;;30.13;11.23;;;7.10;99.90;;;;;;5068733;28;20963;-62
2020/12/19 06:10:25;;;;;;;28.75;11.10;;;7.10;99.90;;;;;;5050536;28;20389;-62
2020/12/19 06:13:26;;;;;;;27.20;11.02;;;7.10;99.90;;;;;;5065380;28;20405;-63
2020/12/19 06:16:11;;;;;;;23.73;10.48;;;7.10;99.90;;;;;;5069562;28;20742;-62
2020/12/19 06:18:52;;;;;;;29.13;11.10;;;7.10;99.90;;;;;;5067255;28;20417;-62
2020/12/19 06:21:18;;;;;;;29.13;11.10;;;7.10;99.90;;;;;;5070377;28;20381;-62
2020/12/19 06:23:45;;;;;;;25.52;10.73;;;7.10;99.90;;;;;;5070193;28;20401;-62
2020/12/19 06:26:12;;;;;;;29.57;10.50;;;7.10;99.90;;;;;;5071447;28;20900;-62
2020/12/19 06:28:42;;;;;;;26.85;10.73;;;7.10;99.90;;;;;;5070373;28;20401;-62
2020/12/19 06:31:13;;;;;;;30.73;11.93;;;7.10;99.90;;;;;;5074154;28;20384;-62
2020/12/19 06:33:40;;;;;;;31.95;11.98;;;7.10;99.90;;;;;;5081148;28;20389;-62
2020/12/19 06:36:31;;;;;;;31.23;12.02;;;7.10;99.90;;;;;;5069337;28;20390;-62
2020/12/19 06:39:06;;;;;;;30.77;12.77;;;7.10;99.90;;;;;;5064479;28;20414;-62
2020/12/19 06:41:43;;;;;;;27.65;11.70;;;7.10;99.90;;;;;;5070559;28;20402;-62
2020/12/19 06:44:15;;;;;;;28.97;12.87;;;7.10;99.90;;;;;;5070816;28;20406;-62
2020/12/19 06:46:41;;;;;;;33.05;13.93;;;7.00;99.90;;;;;;5069692;28;20417;-62
2020/12/19 06:49:40;;;;;;;28.88;12.35;;;7.00;99.90;;;;;;5071242;28;20763;-61
2020/12/19 06:52:10;;;;;;;29.57;12.70;;;6.90;99.90;;;;;;5052255;28;20398;-61
2020/12/19 06:54:45;;;;;;;29.67;12.45;;;6.90;99.90;;;;;;5070157;28;20390;-61
2020/12/19 06:57:30;;;;;;;29.23;13.07;;;6.90;99.90;;;;;;5061960;28;20406;-61
2020/12/19 07:00:35;;;;;;;26.83;12.75;;;6.90;99.90;;;;;;5049571;28;20401;-62
2020/12/19 07:03:02;;;;;;;27.50;11.82;;;6.90;99.90;;;;;;5048018;28;20400;-63
2020/12/19 07:05:33;;;;;;;34.33;13.50;;;6.90;99.90;;;;;;5031324;28;20388;-63
2020/12/19 07:08:20;;;;;;;38.38;13.50;;;6.90;99.90;;;;;;5058888;28;20736;-62
2020/12/19 07:10:47;;;;;;;31.00;13.65;;;6.90;99.90;;;;;;5069291;28;20389;-62
2020/12/19 07:13:13;;;;;;;31.77;13.23;;;6.80;99.90;;;;;;5070851;28;20391;-63
2020/12/19 07:15:47;;;;;;;37.22;13.35;;;6.80;99.90;;;;;;5069603;28;20477;-63
2020/12/19 07:18:40;;;;;;;31.00;13.88;;;6.80;99.90;;;;;;5069819;28;20432;-63
2020/12/19 07:21:09;;;;;;;35.00;13.25;;;6.70;99.90;;;;;;5069342;28;20416;-63
2020/12/19 07:23:38;;;;;;;35.25;12.98;;;6.70;99.90;;;;;;5049885;28;20392;-63
2020/12/19 07:26:05;;;;;;;28.57;13.13;;;6.70;99.90;;;;;;5067554;28;20390;-63
2020/12/19 07:28:31;;;;;;;31.38;13.82;;;6.70;99.90;;;;;;5067968;28;20764;-62
2020/12/19 07:30:57;;;;;;;34.75;13.75;;;6.60;99.90;;;;;;5063757;28;20378;-63
2020/12/19 07:33:26;;;;;;;33.42;13.88;;;6.60;99.90;;;;;;5067455;28;20401;-63
2020/12/19 07:35:52;;;;;;;33.55;13.95;;;6.60;99.90;;;;;;5068382;28;20386;-62
2020/12/19 07:38:22;;;;;;;31.63;14.05;;;6.60;99.90;;;;;;5066372;28;20398;-62
2020/12/19 07:40:55;;;;;;;30.20;13.07;;;6.60;99.90;;;;;;5069842;28;20392;-62
2020/12/19 07:43:21;;;;;;;35.25;13.52;;;6.60;99.90;;;;;;5069893;28;20398;-62
2020/12/19 07:45:49;;;;;;;31.07;13.00;;;6.60;99.90;;;;;;5070222;28;20381;-62
2020/12/19 07:48:19;;;;;;;27.58;12.68;;;6.60;99.90;;;;;;5070683;28;20397;-62
2020/12/19 07:50:45;;;;;;;31.77;12.53;;;6.60;99.90;;;;;;5068707;28;20386;-61
2020/12/19 07:53:11;;;;;;;25.53;12.30;;;6.60;99.90;;;;;;5070086;28;20389;-61
2020/12/19 07:55:37;;;;;;;31.20;13.00;;;6.60;99.90;;;;;;5069313;28;20483;-61
2020/12/19 07:58:03;;;;;;;34.08;13.00;;;6.60;99.90;;;;;;5070534;28;20794;-60
2020/12/19 08:00:30;;;;;;;31.42;13.07;;;6.60;99.90;;;;;;5064181;28;20415;-61
2020/12/19 08:02:56;;;;;;;31.02;13.65;;;6.50;99.90;;;;;;5049180;28;20388;-61
2020/12/19 08:05:23;;;;;;;33.55;12.95;;;6.50;99.90;;;;;;5069080;28;20389;-60
2020/12/19 08:07:53;;;;;;;32.70;12.82;;;6.50;99.90;;;;;;5068536;28;20385;-61
2020/12/19 08:10:19;;;;;;;36.35;13.43;;;6.60;99.90;;;;;;5070318;28;20386;-61
2020/12/19 08:12:45;;;;;;;33.58;13.55;;;6.60;99.90;;;;;;5070424;28;20394;-61
2020/12/19 08:15:12;;;;;;;31.52;13.13;;;6.50;99.90;;;;;;5068786;28;20393;-61
2020/12/19 08:17:46;;;;;;;28.57;11.90;;;6.50;99.90;;;;;;5068867;28;20906;-61
2020/12/19 08:20:13;;;;;;;32.53;11.88;;;6.50;99.90;;;;;;5051936;28;20401;-61
2020/12/19 08:22:40;;;;;;;29.05;12.07;;;6.50;99.90;;;;;;5069722;28;20366;-61
2020/12/19 08:25:06;;;;;;;32.90;12.52;;;6.50;99.90;;;;;;5069727;28;20775;-61
2020/12/19 08:27:35;;;;;;;28.02;12.27;;;6.50;99.90;;;;;;5070010;28;20393;-61
2020/12/19 08:30:10;;;;;;;27.85;11.93;;;6.50;99.90;;;;;;5066388;28;20465;-61
2020/12/19 08:32:43;;;;;;;26.13;11.52;;;6.60;99.90;;;;;;5049939;28;20387;-61
2020/12/19 08:35:09;;;;;;;26.60;10.93;;;6.70;99.90;;;;;;5070691;28;20378;-61
2020/12/19 08:37:36;;;;;;;25.15;10.40;;;6.90;99.90;;;;;;5070923;28;20712;-61
2020/12/19 08:40:13;;;;;;;21.73;9.85;;;6.90;99.90;;;;;;5054000;28;20399;-61
2020/12/19 08:42:40;;;;;;;26.40;9.90;;;7.00;99.90;;;;;;5052815;28;20384;-61
2020/12/19 08:45:32;;;;;;;29.52;10.07;;;7.10;99.90;;;;;;5052375;28;20392;-61
2020/12/19 08:48:00;;;;;;;23.58;8.95;;;7.20;99.90;;;;;;5067897;28;20393;-63
2020/12/19 08:50:31;;;;;;;19.00;9.18;;;7.20;99.90;;;;;;5055468;28;20382;-66
2020/12/19 08:53:16;;;;;;;23.75;9.30;;;7.30;99.90;;;;;;5058667;28;20392;-61
2020/12/19 08:55:42;;;;;;;21.25;9.10;;;7.20;99.90;;;;;;5068867;28;20389;-62
2020/12/19 08:58:28;;;;;;;21.58;9.57;;;7.20;99.90;;;;;;5072821;28;20747;-61
2020/12/19 09:00:56;;;;;;;21.05;9.80;;;7.20;99.90;;;;;;5063972;28;20393;-58
2020/12/19 09:03:32;;;;;;;22.93;9.87;;;7.10;99.90;;;;;;5071831;28;20405;-58
2020/12/19 09:06:05;;;;;;;24.85;9.73;;;7.00;99.90;;;;;;5070806;28;20390;-58
2020/12/19 09:08:35;;;;;;;20.27;9.93;;;7.00;99.90;;;;;;5073008;28;20863;-56
2020/12/19 09:11:01;;;;;;;23.80;9.77;;;6.90;99.90;;;;;;5075018;28;20398;-56
2020/12/19 09:13:27;;;;;;;21.67;10.30;;;6.80;99.90;;;;;;5071448;28;20378;-56
2020/12/19 09:15:57;;;;;;;21.50;10.20;;;6.80;99.90;;;;;;5072599;28;20711;-56
2020/12/19 09:18:34;;;;;;;25.63;10.77;;;6.70;99.90;;;;;;5072420;28;20420;-57
2020/12/19 09:21:01;;;;;;;28.17;12.52;;;6.60;99.90;;;;;;5074303;28;20917;-56
2020/12/19 09:23:27;;;;;;;30.55;12.00;;;6.60;99.90;;;;;;5072049;28;20394;-55
2020/12/19 09:25:54;;;;;;;26.98;11.45;;;6.60;99.90;;;;;;5072831;28;20766;-56
2020/12/19 09:28:22;;;;;;;31.63;12.95;;;6.60;99.90;;;;;;5072472;28;20409;-55
2020/12/19 09:30:49;;;;;;;27.85;12.30;;;6.60;99.90;;;;;;5063321;28;20394;-53
2020/12/19 09:33:15;;;;;;;28.17;12.52;;;6.50;99.90;;;;;;5070501;28;20401;-55
2020/12/19 09:35:41;;;;;;;31.27;13.43;;;6.50;99.90;;;;;;5071424;28;20393;-55
2020/12/19 09:38:08;;;;;;;25.17;12.37;;;6.60;99.90;;;;;;5071318;28;20425;-55
2020/12/19 09:40:34;;;;;;;32.50;13.18;;;6.60;99.90;;;;;;5071322;28;20426;-56
2020/12/19 09:43:00;;;;;;;31.20;13.40;;;6.70;99.90;;;;;;5070644;28;20414;-55
2020/12/19 09:45:26;;;;;;;29.80;13.23;;;6.70;99.90;;;;;;5070354;28;20382;-54
2020/12/19 09:47:54;;;;;;;27.95;12.85;;;6.70;99.90;;;;;;5071263;28;20390;-55
2020/12/19 09:50:20;;;;;;;28.77;12.95;;;6.70;99.90;;;;;;5066177;28;20390;-52
2020/12/19 09:52:46;;;;;;;32.05;13.30;;;6.70;99.90;;;;;;5068863;28;20394;-55
2020/12/19 09:55:12;;;;;;;30.88;14.32;;;6.70;99.90;;;;;;5065744;28;20450;-56
2020/12/19 09:57:39;;;;;;;34.90;14.70;;;6.80;99.90;;;;;;5069987;28;20374;-55
2020/12/19 10:00:06;;;;;;;38.73;15.93;;;6.80;99.90;;;;;;5058867;28;20764;-54
2020/12/19 10:02:32;;;;;;;31.85;14.65;;;6.80;99.90;;;;;;5051706;28;20376;-54
2020/12/19 10:04:58;;;;;;;33.72;14.73;;;6.80;99.90;;;;;;5067550;28;20402;-54
2020/12/19 10:07:24;;;;;;;33.35;15.10;;;6.80;99.90;;;;;;5071099;28;20370;-52
2020/12/19 10:09:50;;;;;;;35.33;15.85;;;6.80;99.90;;;;;;5066259;28;20397;-55
2020/12/19 10:12:16;;;;;;;37.30;16.20;;;6.80;99.90;;;;;;5071398;28;20917;-54
2020/12/19 10:14:42;;;;;;;34.17;15.80;;;6.80;99.90;;;;;;5071133;28;20902;-52
2020/12/19 10:17:09;;;;;;;39.17;16.58;;;6.90;99.90;;;;;;5071263;28;20889;-54
2020/12/19 10:19:35;;;;;;;37.03;17.85;;;6.80;99.90;;;;;;5071555;28;20418;-56
2020/12/19 10:22:02;;;;;;;30.67;16.27;;;6.90;99.90;;;;;;5071205;28;20390;-54
2020/12/19 10:24:29;;;;;;;37.17;17.10;;;6.90;99.90;;;;;;5070855;28;20874;-55
2020/12/19 10:26:55;;;;;;;37.25;17.35;;;6.90;99.90;;;;;;5070558;28;20394;-55
2020/12/19 10:29:21;;;;;;;35.50;17.40;;;6.90;99.90;;;;;;5070156;28;20390;-55
2020/12/19 10:31:47;;;;;;;37.17;17.02;;;7.00;99.90;;;;;;5069215;28;20814;-52
2020/12/19 10:34:13;;;;;;;38.40;18.33;;;6.90;99.90;;;;;;5068649;28;20727;-54
2020/12/19 10:36:40;;;;;;;37.17;18.35;;;6.90;99.90;;;;;;5069556;28;20385;-51
2020/12/19 10:39:06;;;;;;;37.78;18.95;;;6.90;99.90;;;;;;5070090;28;20414;-52
2020/12/19 10:41:32;;;;;;;39.70;20.30;;;6.90;99.90;;;;;;5070017;28;20397;-54
2020/12/19 10:43:58;;;;;;;43.43;19.77;;;6.90;99.90;;;;;;5065413;28;20952;-53
2020/12/19 10:46:26;;;;;;;41.33;20.13;;;6.90;99.90;;;;;;5069625;28;20389;-55
2020/12/19 10:48:52;;;;;;;45.17;22.70;;;6.90;99.90;;;;;;5070300;28;20386;-53
2020/12/19 10:51:30;;;;;;;55.60;24.67;;;6.90;99.90;;;;;;5070443;28;20374;-55
2020/12/19 10:53:56;;;;;;;52.50;24.83;;;6.80;99.90;;;;;;5070809;28;20397;-54
2020/12/19 10:56:23;;;;;;;47.63;24.83;;;6.80;99.90;;;;;;5071001;28;20378;-52
2020/12/19 10:58:49;;;;;;;46.15;24.67;;;6.80;99.90;;;;;;5070380;28;20417;-51
2020/12/19 11:01:15;;;;;;;51.38;23.80;;;6.80;99.90;;;;;;5070116;28;20449;-54
2020/12/19 11:03:42;;;;;;;43.75;22.38;;;6.80;99.90;;;;;;5068728;28;20397;-53
2020/12/19 11:06:22;;;;;;;43.07;23.20;;;6.70;99.90;;;;;;5070970;28;20389;-53
2020/12/19 11:08:49;;;;;;;40.30;22.00;;;6.80;99.90;;;;;;5057662;28;20376;-51
2020/12/19 11:11:16;;;;;;;37.88;20.65;;;6.80;99.90;;;;;;5069286;28;20730;-54
2020/12/19 11:13:44;;;;;;;43.13;21.55;;;6.80;99.90;;;;;;5070274;28;20394;-55
2020/12/19 11:16:10;;;;;;;34.17;19.88;;;6.80;99.90;;;;;;5068894;28;20867;-52
2020/12/19 11:18:37;;;;;;;36.77;17.90;;;6.80;99.90;;;;;;5068599;28;20885;-53
2020/12/19 11:21:04;;;;;;;33.15;17.67;;;6.80;99.90;;;;;;5068528;28;20382;-52
2020/12/19 11:23:30;;;;;;;35.63;17.95;;;6.80;99.90;;;;;;5055060;28;20427;-53
2020/12/19 11:25:56;;;;;;;35.25;19.80;;;6.80;99.90;;;;;;5070867;28;20389;-51
2020/12/19 11:28:22;;;;;;;35.15;19.30;;;6.80;99.90;;;;;;5069710;28;20394;-52
2020/12/19 11:30:48;;;;;;;36.28;18.50;;;6.80;99.90;;;;;;5071012;28;20374;-54
2020/12/19 11:33:14;;;;;;;36.80;18.75;;;6.80;99.90;;;;;;5070258;28;20382;-57
2020/12/19 11:35:44;;;;;;;34.47;18.40;;;6.80;99.90;;;;;;5070234;28;20378;-52
2020/12/19 11:38:10;;;;;;;31.92;16.55;;;6.80;99.90;;;;;;5063602;28;20380;-51
2020/12/19 11:40:36;;;;;;;30.63;16.33;;;6.80;99.90;;;;;;5050616;28;20383;-51
2020/12/19 11:43:02;;;;;;;32.85;17.38;;;6.80;99.90;;;;;;5062860;28;20708;-54
2020/12/19 11:45:28;;;;;;;32.17;16.67;;;6.80;99.90;;;;;;5069962;28;20393;-50
2020/12/19 11:47:54;;;;;;;27.60;15.07;;;6.80;99.90;;;;;;5070656;28;20696;-50
2020/12/19 11:50:21;;;;;;;29.73;15.63;;;6.80;99.90;;;;;;5062166;28;20390;-53
2020/12/19 11:52:47;;;;;;;27.90;14.63;;;6.80;99.90;;;;;;5069733;28;20401;-54
2020/12/19 11:55:13;;;;;;;28.60;15.23;;;6.90;99.90;;;;;;5070042;28;20401;-54
2020/12/19 11:57:39;;;;;;;29.10;14.98;;;6.80;99.90;;;;;;5069133;28;20374;-55
2020/12/19 12:00:08;;;;;;;28.00;15.15;;;6.90;99.90;;;;;;5069633;28;20405;-56
2020/12/19 12:02:40;;;;;;;29.88;15.00;;;6.90;99.90;;;;;;5069445;28;20385;-57
2020/12/19 12:05:07;;;;;;;26.88;14.43;;;6.90;99.90;;;;;;5069525;28;20401;-55
2020/12/19 12:07:33;;;;;;;27.35;14.20;;;6.90;99.90;;;;;;5070044;28;20393;-54
2020/12/19 12:09:59;;;;;;;26.13;14.60;;;6.80;99.90;;;;;;5073373;28;20394;-53
2020/12/19 12:12:25;;;;;;;25.85;14.80;;;6.90;99.90;;;;;;5072630;28;20408;-51
2020/12/19 12:14:51;;;;;;;30.73;15.43;;;6.80;99.90;;;;;;5073821;28;20410;-54
2020/12/19 12:17:17;;;;;;;27.00;15.13;;;6.80;99.90;;;;;;5074785;28;20374;-56
2020/12/19 12:19:43;;;;;;;28.17;15.90;;;6.80;99.90;;;;;;5073557;28;20459;-52
2020/12/19 12:22:12;;;;;;;28.23;14.93;;;6.80;99.90;;;;;;5074125;28;20385;-51
2020/12/19 12:24:39;;;;;;;25.75;14.75;;;6.80;99.90;;;;;;5077129;28;20393;-52
2020/12/19 12:27:05;;;;;;;28.40;15.80;;;6.80;99.90;;;;;;5070895;28;20912;-54
2020/12/19 12:29:31;;;;;;;28.55;15.20;;;6.80;99.90;;;;;;5072718;28;20389;-56
2020/12/19 12:31:57;;;;;;;25.55;14.68;;;6.80;99.90;;;;;;5073637;28;20382;-51
2020/12/19 12:34:24;;;;;;;28.27;14.90;;;6.80;99.90;;;;;;5072389;28;20406;-52
2020/12/19 12:36:50;;;;;;;24.10;14.70;;;6.80;99.90;;;;;;5068143;28;20753;-51
2020/12/19 12:39:16;;;;;;;27.60;15.38;;;6.80;99.90;;;;;;5072556;28;20412;-53